Alev Kaman — TCCN5 — position and weather

sailwx.info

Track history (hours):
 
Tides and Currents Weather Stations Pressure Air Temp Water Temp Dewpoint Dewpoint Depression Visibility Wind Speed Wind Dir Waves Ship Positions

Alev Kaman

Last reported at 2015-May-30 04:17 UTC. Time now 2015-May-30 20:34 UTC.
Position N 40°46' E 029°39'.

Length 93 m; draft 6.3 m.

Type: Tanker. MMSI: 271000716.

Date/timePositionNaut miles runAvg speedWind from/ knotsBaromVisibWave heightAir tempDewpointWater temp
2015-May-30 04:17N 40°46' E 029°39'0 0.0
2015-May-30 03:31N 40°46' E 029°39'3 1.0
2015-May-30 00:28N 40°45' E 029°35'9 9.7
2015-May-29 23:33N 40°44' E 029°24'9 9.3
2015-May-29 22:33N 40°44' E 029°11'10 9.4
2015-May-29 21:32N 40°43' E 028°59'10 9.4
2015-May-29 20:31N 40°43' E 028°46'  
2015-May-25 13:25N 40°46' E 029°40'0 0.0
2015-May-25 11:30N 40°46' E 029°40'0 0.0
2015-May-24 15:22N 40°46' E 029°40'0 0.0
2015-May-24 13:21N 40°46' E 029°40'0 0.0
2015-May-24 12:14N 40°46' E 029°40'0 0.0
2015-May-23 11:25N 40°46' E 029°40'  
Track history (hours):
 
Tides and Currents Weather Stations Pressure Air Temp Water Temp Dewpoint Dewpoint Depression Visibility Wind Speed Wind Dir Waves Ship Positions

Alev Kaman

Last reported at 2015-May-30 04:17 UTC. Time now 2015-May-30 20:34 UTC.
Position N 40°46' E 029°39'.

Length 93 m; draft 6.3 m.

Type: Tanker. MMSI: 271000716.

Date/timePositionNaut miles runAvg speedWind from/ knotsBaromVisibWave heightAir tempDewpointWater temp
2015-May-30 04:17N 40°46' E 029°39'0 0.0
2015-May-30 03:31N 40°46' E 029°39'3 1.0
2015-May-30 00:28N 40°45' E 029°35'9 9.7
2015-May-29 23:33N 40°44' E 029°24'9 9.3
2015-May-29 22:33N 40°44' E 029°11'10 9.4
2015-May-29 21:32N 40°43' E 028°59'10 9.4
2015-May-29 20:31N 40°43' E 028°46'  
2015-May-25 13:25N 40°46' E 029°40'0 0.0
2015-May-25 11:30N 40°46' E 029°40'0 0.0
2015-May-24 15:22N 40°46' E 029°40'0 0.0
2015-May-24 13:21N 40°46' E 029°40'0 0.0
2015-May-24 12:14N 40°46' E 029°40'0 0.0
2015-May-23 11:25N 40°46' E 029°40'  

Dump ship's entire track history